createdAt,value
2018-01-29T00:01:25.812Z,3.20
2018-01-29T00:03:59.335Z,2.50
2018-01-29T00:06:33.073Z,2.40
2018-01-29T00:09:06.616Z,2.60
2018-01-29T00:11:40.228Z,2.60
2018-01-29T00:14:13.887Z,2.70
2018-01-29T00:16:47.443Z,2.80
2018-01-29T00:19:21.020Z,2.70
2018-01-29T00:21:54.574Z,2.80
2018-01-29T00:24:28.100Z,2.90
2018-01-29T00:27:01.738Z,2.90
2018-01-29T00:29:35.283Z,3.00
2018-01-29T00:32:08.843Z,2.90
2018-01-29T00:34:43.158Z,2.80
2018-01-29T00:37:16.716Z,2.80
2018-01-29T00:39:51.060Z,2.70
2018-01-29T00:42:24.644Z,2.60
2018-01-29T00:44:58.208Z,2.60
2018-01-29T00:47:31.863Z,2.60
2018-01-29T00:50:05.436Z,2.70
2018-01-29T00:52:39.089Z,2.60
2018-01-29T00:55:12.661Z,2.60
2018-01-29T00:57:46.177Z,2.50
2018-01-29T01:00:20.494Z,2.50
2018-01-29T01:02:53.986Z,2.50
2018-01-29T01:05:27.551Z,2.50
2018-01-29T01:08:01.127Z,2.40
2018-01-29T01:10:34.671Z,2.50
2018-01-29T01:13:09.004Z,2.30
2018-01-29T01:15:43.429Z,2.20
2018-01-29T01:18:17.015Z,2.20
2018-01-29T01:20:50.601Z,2.20
2018-01-29T01:23:24.149Z,2.20
2018-01-29T01:25:58.486Z,2.10
2018-01-29T01:28:32.845Z,2.10
2018-01-29T01:31:06.577Z,2.00
2018-01-29T01:33:40.995Z,1.60
2018-01-29T01:36:15.506Z,1.80
2018-01-29T01:38:50.021Z,1.80
2018-01-29T01:41:24.332Z,1.90
2018-01-29T01:43:57.932Z,1.90
2018-01-29T01:46:31.457Z,1.90
2018-01-29T01:49:04.966Z,1.90
2018-01-29T01:51:38.544Z,1.90
2018-01-29T01:54:12.060Z,1.90
2018-01-29T01:56:45.641Z,1.90
2018-01-29T01:59:19.239Z,1.80
2018-01-29T02:01:56.656Z,1.70
2018-01-29T02:04:30.131Z,1.70
2018-01-29T02:07:03.709Z,1.80
2018-01-29T02:09:38.039Z,1.90
2018-01-29T02:12:11.572Z,1.80
2018-01-29T02:14:45.096Z,1.90
2018-01-29T02:17:18.659Z,1.90
2018-01-29T02:19:52.233Z,1.80
2018-01-29T02:22:26.407Z,1.80
2018-01-29T02:25:00.096Z,1.70
2018-01-29T02:27:33.646Z,1.60
2018-01-29T02:30:07.241Z,1.60
2018-01-29T02:32:40.882Z,1.60
2018-01-29T02:35:14.459Z,1.50
2018-01-29T02:37:47.961Z,1.50
2018-01-29T02:40:21.480Z,1.50
2018-01-29T02:42:55.016Z,1.50
2018-01-29T02:45:28.666Z,1.40
2018-01-29T02:48:02.274Z,1.60
2018-01-29T02:50:35.824Z,1.50
2018-01-29T02:53:09.490Z,1.50
2018-01-29T02:55:43.070Z,1.50
2018-01-29T02:58:16.613Z,1.70
2018-01-29T03:00:50.179Z,1.60
2018-01-29T03:03:23.767Z,1.50
2018-01-29T03:05:58.246Z,1.50
2018-01-29T03:08:31.861Z,1.50
2018-01-29T03:11:05.483Z,1.40
2018-01-29T03:13:39.186Z,1.20
2018-01-29T03:16:12.791Z,1.20
2018-01-29T03:18:46.418Z,1.10
2018-01-29T03:21:20.722Z,0.80
2018-01-29T03:23:54.413Z,0.70
2018-01-29T03:26:28.004Z,0.40
2018-01-29T03:29:01.765Z,0.10
2018-01-29T03:31:35.294Z,0.20
2018-01-29T03:34:08.865Z,0.40
2018-01-29T03:36:42.423Z,0.50
2018-01-29T03:39:15.979Z,0.60
2018-01-29T03:41:49.550Z,0.70
2018-01-29T03:44:23.165Z,0.60
2018-01-29T03:46:57.622Z,0.80
2018-01-29T03:49:31.344Z,0.80
2018-01-29T03:52:04.903Z,0.80
2018-01-29T03:54:38.418Z,0.80
2018-01-29T03:57:12.008Z,0.80
2018-01-29T03:59:45.564Z,0.80
2018-01-29T04:02:19.136Z,0.60
2018-01-29T04:04:53.453Z,0.80
2018-01-29T04:07:27.770Z,0.80
2018-01-29T04:10:01.359Z,0.80
2018-01-29T04:12:34.910Z,0.70
2018-01-29T04:15:11.934Z,0.80
2018-01-29T04:17:45.535Z,0.90
2018-01-29T04:20:19.069Z,0.80
2018-01-29T04:22:52.565Z,0.80
2018-01-29T04:25:26.162Z,0.70
2018-01-29T04:27:59.731Z,0.80
2018-01-29T04:30:33.348Z,0.80
2018-01-29T04:33:06.920Z,0.90
2018-01-29T04:35:40.458Z,0.90
2018-01-29T04:38:13.970Z,0.90
2018-01-29T04:40:48.436Z,1.00
2018-01-29T04:43:22.055Z,1.00
2018-01-29T04:45:57.314Z,0.70
2018-01-29T04:48:31.022Z,0.70
2018-01-29T04:51:05.334Z,0.70
2018-01-29T04:53:39.650Z,0.80
2018-01-29T04:56:13.377Z,0.80
2018-01-29T04:58:46.947Z,0.80
2018-01-29T05:01:20.557Z,0.80
2018-01-29T05:03:54.289Z,1.00
2018-01-29T05:06:27.882Z,0.90
2018-01-29T05:09:01.498Z,0.80
2018-01-29T05:11:35.058Z,0.80
2018-01-29T05:14:08.594Z,0.80
2018-01-29T05:16:42.260Z,0.80
2018-01-29T05:19:15.796Z,0.90
2018-01-29T05:21:49.332Z,0.90
2018-01-29T05:24:22.869Z,0.90
2018-01-29T05:26:56.518Z,0.80
2018-01-29T05:29:30.869Z,0.90
2018-01-29T05:32:04.584Z,0.90
2018-01-29T05:34:41.737Z,1.00
2018-01-29T05:50:39.230Z,0.90
2018-01-29T05:53:12.848Z,1.00
2018-01-29T05:55:46.537Z,1.10
2018-01-29T05:58:20.242Z,1.20
2018-01-29T06:00:53.909Z,1.40
2018-01-29T06:03:27.620Z,1.50
2018-01-29T06:06:01.219Z,1.60
2018-01-29T06:08:34.802Z,1.50
2018-01-29T06:11:08.612Z,1.60
2018-01-29T06:13:42.221Z,1.50
2018-01-29T06:16:15.745Z,1.30
2018-01-29T06:18:59.355Z,1.10
2018-01-29T06:21:32.886Z,1.00
2018-01-29T06:24:06.458Z,1.00
2018-01-29T06:26:40.058Z,0.90
2018-01-29T06:29:13.729Z,0.80
2018-01-29T06:31:48.061Z,0.80
2018-01-29T06:34:21.666Z,0.80
2018-01-29T06:36:55.278Z,0.60
2018-01-29T06:39:28.902Z,0.40
2018-01-29T06:42:02.426Z,0.30
2018-01-29T06:44:35.984Z,0.30
2018-01-29T06:47:09.572Z,0.30
2018-01-29T06:49:43.162Z,0.20
2018-01-29T06:52:16.716Z,0.10
2018-01-29T06:54:50.269Z,0.30
2018-01-29T06:57:23.811Z,0.40
2018-01-29T06:59:57.378Z,0.40
2018-01-29T07:02:31.701Z,0.40
2018-01-29T07:05:14.980Z,0.50
2018-01-29T07:07:48.579Z,0.40
2018-01-29T07:10:22.177Z,0.30
2018-01-29T07:12:56.476Z,0.40
2018-01-29T07:15:29.984Z,0.40
2018-01-29T07:18:07.404Z,0.50
2018-01-29T07:20:40.963Z,0.50
2018-01-29T07:23:14.522Z,0.50
2018-01-29T07:25:48.248Z,0.60
2018-01-29T07:28:21.835Z,0.50
2018-01-29T07:30:55.328Z,0.60
2018-01-29T07:33:29.098Z,0.50
2018-01-29T07:36:02.652Z,0.60
2018-01-29T07:38:36.246Z,0.60
2018-01-29T07:41:09.860Z,0.40
2018-01-29T07:43:49.524Z,0.40
2018-01-29T07:46:23.279Z,0.50
2018-01-29T07:48:57.018Z,0.60
2018-01-29T07:51:30.583Z,0.70
2018-01-29T07:54:10.803Z,0.90
2018-01-29T07:56:44.415Z,1.10
2018-01-29T07:59:18.141Z,1.30
2018-01-29T08:01:51.894Z,1.50
2018-01-29T08:04:25.439Z,1.80
2018-01-29T08:06:59.092Z,2.00
2018-01-29T08:09:32.669Z,2.10
2018-01-29T08:12:06.199Z,2.30
2018-01-29T08:14:39.863Z,2.40
2018-01-29T08:17:13.575Z,2.60
2018-01-29T08:19:48.075Z,2.90
2018-01-29T08:22:21.758Z,2.80
2018-01-29T08:24:55.425Z,3.10
2018-01-29T08:27:28.990Z,3.20
2018-01-29T08:30:02.581Z,3.40
2018-01-29T08:32:36.919Z,3.70
2018-01-29T08:35:10.535Z,3.70
2018-01-29T08:37:45.025Z,4.00
2018-01-29T08:40:18.752Z,3.90
2018-01-29T08:42:52.318Z,4.10
2018-01-29T08:45:31.995Z,4.20
2018-01-29T08:48:05.595Z,4.40
2018-01-29T08:50:39.094Z,4.50
2018-01-29T08:53:12.766Z,4.60
2018-01-29T08:55:46.302Z,4.80
2018-01-29T08:58:19.851Z,4.90
2018-01-29T09:00:53.581Z,5.10
2018-01-29T09:03:30.933Z,5.20
2018-01-29T09:06:05.379Z,5.30
2018-01-29T09:08:39.205Z,5.50
2018-01-29T09:11:12.778Z,5.70
2018-01-29T09:13:46.433Z,5.80
2018-01-29T09:16:20.831Z,6.10
2018-01-29T09:18:54.359Z,6.10
2018-01-29T09:21:28.019Z,5.80
2018-01-29T09:24:01.624Z,6.00
2018-01-29T09:26:35.135Z,5.80
2018-01-29T09:29:08.738Z,6.00
2018-01-29T09:31:42.314Z,6.00
2018-01-29T09:34:15.911Z,5.90
2018-01-29T09:36:49.531Z,6.10
2018-01-29T09:39:26.291Z,6.10
2018-01-29T09:41:59.907Z,6.30
2018-01-29T09:44:34.340Z,6.50
2018-01-29T09:47:08.626Z,6.60
2018-01-29T09:49:42.262Z,6.60
2018-01-29T09:52:15.867Z,6.80
2018-01-29T09:54:50.153Z,7.10
2018-01-29T09:57:24.486Z,7.20
2018-01-29T10:00:00.084Z,7.20
2018-01-29T10:02:33.968Z,7.50
2018-01-29T10:05:07.532Z,7.60
2018-01-29T10:07:41.128Z,7.80
2018-01-29T10:10:14.642Z,7.80
2018-01-29T10:12:49.027Z,8.00
2018-01-29T10:15:22.629Z,8.00
2018-01-29T10:17:56.245Z,8.10
2018-01-29T10:20:29.817Z,8.20
2018-01-29T10:23:04.151Z,8.40
2018-01-29T10:25:37.669Z,8.40
2018-01-29T10:28:11.236Z,8.50
2018-01-29T10:30:44.843Z,8.50
2018-01-29T10:33:19.278Z,8.80
2018-01-29T10:35:52.991Z,8.80
2018-01-29T10:38:26.579Z,9.00
2018-01-29T10:41:00.892Z,9.30
2018-01-29T10:43:34.713Z,9.30
2018-01-29T10:46:11.713Z,9.40
2018-01-29T10:48:45.198Z,9.40
2018-01-29T10:51:18.786Z,9.50
2018-01-29T10:53:52.398Z,9.70
2018-01-29T10:56:26.819Z,10.10
2018-01-29T10:59:00.411Z,10.10
2018-01-29T11:01:42.748Z,10.20
2018-01-29T11:04:16.522Z,10.40
2018-01-29T11:06:50.111Z,10.50
2018-01-29T11:09:23.616Z,10.60
2018-01-29T11:11:57.121Z,10.80
2018-01-29T11:14:30.689Z,10.80
2018-01-29T11:17:04.241Z,10.90
2018-01-29T11:19:37.728Z,10.80
2018-01-29T11:22:11.318Z,10.90
2018-01-29T11:24:44.888Z,11.00
2018-01-29T11:27:18.497Z,11.10
2018-01-29T11:29:52.125Z,11.20
2018-01-29T11:32:25.838Z,11.10
2018-01-29T11:34:59.430Z,11.20
2018-01-29T11:37:32.978Z,11.10
2018-01-29T11:40:06.639Z,11.30
2018-01-29T11:42:40.124Z,11.40
2018-01-29T11:45:13.679Z,11.40
2018-01-29T11:47:47.188Z,11.50
2018-01-29T11:50:21.533Z,11.60
2018-01-29T11:52:55.253Z,11.60
2018-01-29T11:55:29.536Z,11.80
2018-01-29T11:58:03.222Z,11.70
2018-01-29T12:00:42.763Z,11.80
2018-01-29T12:03:16.388Z,11.70
2018-01-29T12:05:50.713Z,12.00
2018-01-29T12:08:24.532Z,12.00
2018-01-29T12:10:58.961Z,12.30
2018-01-29T12:13:33.249Z,12.30
2018-01-29T12:16:06.749Z,12.30
2018-01-29T12:18:40.313Z,12.50
2018-01-29T12:21:13.882Z,12.40
2018-01-29T12:23:47.449Z,12.50
2018-01-29T12:26:21.030Z,12.60
2018-01-29T12:28:54.652Z,12.40
2018-01-29T12:31:28.188Z,12.60
2018-01-29T12:34:01.677Z,12.70
2018-01-29T12:36:35.258Z,12.80
2018-01-29T12:39:08.761Z,12.80
2018-01-29T12:41:42.344Z,12.80
2018-01-29T12:44:15.939Z,12.90
2018-01-29T12:46:49.512Z,12.90
2018-01-29T12:49:23.068Z,13.10
2018-01-29T12:51:56.670Z,13.10
2018-01-29T12:54:30.252Z,13.20
2018-01-29T12:57:03.745Z,13.10
2018-01-29T12:59:37.340Z,13.20
2018-01-29T13:02:10.881Z,13.30
2018-01-29T13:04:44.442Z,13.50
2018-01-29T13:07:18.775Z,13.60
2018-01-29T13:09:52.370Z,13.50
2018-01-29T13:12:25.958Z,13.50
2018-01-29T13:14:59.459Z,13.60
2018-01-29T13:17:33.045Z,13.60
2018-01-29T13:20:06.714Z,13.60
2018-01-29T13:22:43.409Z,13.40
2018-01-29T13:25:16.951Z,13.60
2018-01-29T13:27:50.561Z,13.80
2018-01-29T13:30:24.111Z,13.80
2018-01-29T13:32:57.644Z,13.80
2018-01-29T13:35:31.265Z,13.90
2018-01-29T13:38:04.855Z,14.00
2018-01-29T13:40:38.571Z,13.80
2018-01-29T13:43:12.134Z,13.90
2018-01-29T13:45:45.749Z,13.90
2018-01-29T13:48:19.340Z,13.90
2018-01-29T13:50:52.936Z,13.70
2018-01-29T13:53:26.462Z,13.80
2018-01-29T13:56:00.045Z,13.90
2018-01-29T13:58:33.618Z,13.80
2018-01-29T14:01:07.254Z,13.90
2018-01-29T14:03:41.756Z,14.10
2018-01-29T14:06:15.433Z,14.10
2018-01-29T14:08:48.960Z,14.20
2018-01-29T14:11:22.493Z,14.40
2018-01-29T14:13:56.073Z,14.30
2018-01-29T14:16:29.634Z,14.10
2018-01-29T14:19:03.172Z,14.00
2018-01-29T14:21:36.739Z,14.00
2018-01-29T14:24:10.320Z,13.70
2018-01-29T14:26:43.984Z,13.90
2018-01-29T14:29:17.574Z,14.00
2018-01-29T14:31:51.159Z,13.80
2018-01-29T14:34:24.691Z,13.50
2018-01-29T14:36:58.284Z,13.50
2018-01-29T14:39:31.871Z,13.50
2018-01-29T14:42:05.510Z,13.50
2018-01-29T14:44:39.196Z,13.30
2018-01-29T14:47:16.545Z,13.20
2018-01-29T14:49:50.058Z,13.20
2018-01-29T14:52:23.584Z,13.30
2018-01-29T14:54:57.128Z,13.40
2018-01-29T14:57:30.740Z,13.50
2018-01-29T15:00:04.286Z,13.50
2018-01-29T15:02:37.876Z,13.40
2018-01-29T15:05:11.479Z,13.50
2018-01-29T15:07:44.985Z,13.20
2018-01-29T15:10:18.586Z,13.00
2018-01-29T15:12:52.188Z,13.00
2018-01-29T15:15:25.750Z,13.00
2018-01-29T15:17:59.534Z,13.10
2018-01-29T15:20:40.086Z,13.00
2018-01-29T15:23:13.635Z,12.90
2018-01-29T15:25:47.243Z,12.90
2018-01-29T15:28:20.924Z,12.90
2018-01-29T15:30:55.240Z,12.70
2018-01-29T15:33:28.956Z,12.70
2018-01-29T15:36:06.008Z,12.60
2018-01-29T15:38:39.602Z,12.50
2018-01-29T15:41:13.967Z,12.10
2018-01-29T15:43:47.634Z,12.10
2018-01-29T15:46:21.260Z,11.90
2018-01-29T15:48:54.838Z,11.70
2018-01-29T15:51:28.356Z,11.70
2018-01-29T15:54:01.938Z,11.80
2018-01-29T15:56:35.526Z,11.80
2018-01-29T15:59:10.027Z,11.90
2018-01-29T16:01:43.680Z,11.90
2018-01-29T16:04:17.133Z,11.90
2018-01-29T16:06:50.794Z,11.90
2018-01-29T16:09:24.606Z,11.90
2018-01-29T16:11:58.157Z,11.90
2018-01-29T16:14:31.891Z,11.70
2018-01-29T16:17:05.408Z,11.40
2018-01-29T16:19:39.766Z,10.50
2018-01-29T16:22:14.134Z,10.10
2018-01-29T16:24:47.666Z,10.10
2018-01-29T16:27:21.222Z,9.60
2018-01-29T16:29:54.815Z,9.40
2018-01-29T16:32:28.548Z,8.90
2018-01-29T16:35:02.828Z,8.50
2018-01-29T16:37:36.523Z,8.40
2018-01-29T16:40:10.205Z,8.40
2018-01-29T16:42:44.014Z,8.00
2018-01-29T16:45:17.522Z,7.90
2018-01-29T16:47:51.070Z,7.80
2018-01-29T16:50:25.411Z,8.30
2018-01-29T16:52:59.871Z,8.50
2018-01-29T16:55:33.455Z,8.50
2018-01-29T16:58:06.998Z,8.60
2018-01-29T17:00:41.386Z,8.30
2018-01-29T17:03:15.935Z,8.30
2018-01-29T17:05:50.250Z,8.30
2018-01-29T17:08:23.999Z,8.30
2018-01-29T17:10:57.607Z,8.20
2018-01-29T17:13:31.386Z,8.20
2018-01-29T17:16:05.137Z,8.00
2018-01-29T17:18:38.686Z,8.10
2018-01-29T17:21:12.286Z,8.20
2018-01-29T17:23:46.593Z,8.80
2018-01-29T17:26:23.465Z,8.70
2018-01-29T17:28:57.056Z,8.90
2018-01-29T17:31:30.642Z,9.00
2018-01-29T17:34:04.147Z,8.80
2018-01-29T17:36:37.792Z,9.00
2018-01-29T17:39:11.441Z,9.10
2018-01-29T17:41:45.773Z,9.10
2018-01-29T17:44:19.371Z,9.10
2018-01-29T17:46:52.901Z,9.00
2018-01-29T17:49:26.512Z,9.00
2018-01-29T17:52:00.802Z,9.10
2018-01-29T17:54:34.456Z,9.10
2018-01-29T17:57:08.117Z,9.20
2018-01-29T17:59:41.620Z,9.30
2018-01-29T18:02:15.194Z,9.30
2018-01-29T18:04:48.828Z,9.40
2018-01-29T18:07:22.406Z,9.20
2018-01-29T18:09:56.027Z,9.10
2018-01-29T18:12:29.608Z,9.00
2018-01-29T18:15:03.137Z,9.00
2018-01-29T18:17:40.109Z,9.00
2018-01-29T18:20:13.767Z,8.80
2018-01-29T18:22:48.146Z,8.90
2018-01-29T18:25:21.708Z,8.80
2018-01-29T18:27:55.306Z,8.80
2018-01-29T18:30:28.917Z,8.80
2018-01-29T18:33:03.429Z,8.90
2018-01-29T18:35:37.275Z,8.80
2018-01-29T18:38:10.891Z,8.90
2018-01-29T18:40:45.329Z,8.70
2018-01-29T18:43:18.875Z,8.70
2018-01-29T18:45:52.587Z,8.70
2018-01-29T18:48:26.167Z,8.60
2018-01-29T18:50:59.756Z,8.50
2018-01-29T18:53:33.548Z,8.40
2018-01-29T18:56:07.310Z,8.30
2018-01-29T18:58:41.691Z,8.00
2018-01-29T19:01:15.518Z,8.00
2018-01-29T19:03:49.244Z,7.90
2018-01-29T19:06:23.606Z,7.60
2018-01-29T19:08:57.373Z,7.60
2018-01-29T19:11:31.161Z,7.40
2018-01-29T19:14:05.017Z,7.30
2018-01-29T19:16:38.607Z,7.20
2018-01-29T19:19:12.374Z,7.10
2018-01-29T19:21:46.044Z,7.00
2018-01-29T19:24:19.813Z,6.80
2018-01-29T19:26:53.594Z,6.90
2018-01-29T19:29:28.083Z,6.70
2018-01-29T19:32:01.811Z,6.70
2018-01-29T19:34:35.432Z,6.60
2018-01-29T19:37:12.914Z,6.90
2018-01-29T19:39:46.597Z,7.20
2018-01-29T19:42:20.251Z,7.40
2018-01-29T19:44:53.913Z,7.80
2018-01-29T19:47:27.719Z,8.10
2018-01-29T19:50:01.390Z,8.30
2018-01-29T19:52:35.029Z,8.40
2018-01-29T19:55:08.773Z,8.50
2018-01-29T19:57:42.517Z,8.50
2018-01-29T20:00:17.035Z,8.60
2018-01-29T20:02:51.502Z,8.60
2018-01-29T20:05:25.176Z,8.60
2018-01-29T20:07:59.717Z,8.70
2018-01-29T20:10:33.430Z,8.70
2018-01-29T20:13:07.134Z,8.70
2018-01-29T20:15:40.737Z,8.70
2018-01-29T20:18:15.142Z,8.60
2018-01-29T20:20:48.794Z,8.60
2018-01-29T20:23:22.367Z,8.50
2018-01-29T20:25:55.995Z,8.50
2018-01-29T20:28:29.829Z,8.50
2018-01-29T20:31:05.353Z,8.40
2018-01-29T20:33:39.084Z,8.40
2018-01-29T20:36:12.663Z,8.30
2018-01-29T20:38:46.423Z,8.30
2018-01-29T20:41:20.733Z,8.30
2018-01-29T20:43:55.111Z,8.20
2018-01-29T20:46:28.866Z,8.20
2018-01-29T20:49:02.408Z,8.10
2018-01-29T20:51:39.168Z,8.20
2018-01-29T20:54:12.934Z,8.10
2018-01-29T20:56:46.732Z,8.00
2018-01-29T20:59:20.388Z,8.00
2018-01-29T21:01:54.012Z,8.00
2018-01-29T21:04:27.570Z,7.90
2018-01-29T21:07:01.649Z,7.80
2018-01-29T21:09:36.183Z,7.50
2018-01-29T21:12:09.789Z,7.50
2018-01-29T21:14:43.774Z,7.20
2018-01-29T21:17:17.448Z,6.90
2018-01-29T21:19:51.001Z,6.60
2018-01-29T21:22:24.624Z,6.40
2018-01-29T21:24:58.403Z,6.40
2018-01-29T21:27:32.101Z,6.30
2018-01-29T21:30:05.904Z,6.50
2018-01-29T21:32:40.979Z,6.50
2018-01-29T21:35:14.538Z,6.50
2018-01-29T21:37:48.357Z,6.70
2018-01-29T21:40:22.056Z,6.90
2018-01-29T21:42:56.401Z,7.10
2018-01-29T21:45:30.871Z,7.20
2018-01-29T21:48:04.559Z,7.20
2018-01-29T21:50:38.366Z,7.30
2018-01-29T21:53:12.197Z,7.40
2018-01-29T21:55:45.782Z,7.10
2018-01-29T21:58:19.406Z,7.10
2018-01-29T22:00:53.154Z,7.10
2018-01-29T22:03:26.790Z,7.20
2018-01-29T22:06:00.342Z,7.30
2018-01-29T22:08:33.886Z,7.30
2018-01-29T22:11:07.411Z,7.20
2018-01-29T22:13:41.050Z,7.30
2018-01-29T22:16:14.882Z,7.30
2018-01-29T22:18:48.501Z,7.30
2018-01-29T22:21:22.296Z,7.20
2018-01-29T22:23:55.882Z,7.20
2018-01-29T22:26:29.567Z,7.30
2018-01-29T22:29:03.440Z,7.40
2018-01-29T22:31:37.759Z,7.50
2018-01-29T22:34:15.101Z,7.50
2018-01-29T22:36:48.737Z,7.50
2018-01-29T22:39:22.544Z,7.60
2018-01-29T22:41:56.243Z,7.70
2018-01-29T22:44:29.840Z,7.80
2018-01-29T22:47:03.560Z,7.80
2018-01-29T22:49:40.834Z,7.80
2018-01-29T22:52:17.644Z,7.90
2018-01-29T22:54:51.400Z,8.00
2018-01-29T22:57:25.106Z,7.80
2018-01-29T22:59:58.723Z,7.60
2018-01-29T23:02:33.177Z,7.70
2018-01-29T23:05:07.666Z,7.80
2018-01-29T23:07:41.284Z,7.80
2018-01-29T23:10:14.856Z,7.50
2018-01-29T23:12:48.459Z,7.50
2018-01-29T23:15:22.022Z,7.60
2018-01-29T23:17:55.530Z,7.60
2018-01-29T23:20:29.130Z,7.50
2018-01-29T23:23:02.795Z,7.50
2018-01-29T23:25:36.366Z,7.60
2018-01-29T23:28:10.076Z,7.70
2018-01-29T23:30:44.455Z,7.50
2018-01-29T23:33:18.262Z,7.50
2018-01-29T23:35:52.049Z,7.50
2018-01-29T23:38:25.859Z,7.40
2018-01-29T23:40:59.532Z,7.10
2018-01-29T23:43:33.101Z,7.00
2018-01-29T23:46:06.717Z,7.10
2018-01-29T23:48:40.302Z,7.10
2018-01-29T23:51:13.934Z,7.10
2018-01-29T23:53:47.506Z,7.10
2018-01-29T23:56:21.139Z,7.10
2018-01-29T23:58:54.670Z,7.20
